createdAt,value
2019-05-28T00:00:01.018Z,74.99
2019-05-28T00:02:48.385Z,72.96
2019-05-28T00:05:47.377Z,73.87
2019-05-28T00:08:47.326Z,74.28
2019-05-28T00:11:47.313Z,74.89
2019-05-28T00:14:47.311Z,74.38
2019-05-28T00:17:47.237Z,75.70
2019-05-28T00:20:47.215Z,74.08
2019-05-28T00:23:47.165Z,74.93
2019-05-28T00:26:47.141Z,74.62
2019-05-28T00:29:47.122Z,75.33
2019-05-28T00:32:47.063Z,76.96
2019-05-28T00:35:47.046Z,76.69
2019-05-28T00:38:46.998Z,76.69
2019-05-28T00:41:49.267Z,77.85
2019-05-28T00:44:46.937Z,79.82
2019-05-28T00:47:46.933Z,80.61
2019-05-28T00:50:46.877Z,81.73
2019-05-28T00:53:46.849Z,82.59
2019-05-28T00:56:46.843Z,83.95
2019-05-28T00:59:46.793Z,83.54
2019-05-28T01:02:46.775Z,84.00
2019-05-28T01:05:46.709Z,85.26
2019-05-28T01:08:46.713Z,86.43
2019-05-28T01:11:46.642Z,86.73
2019-05-28T01:14:46.662Z,87.65
2019-05-28T01:17:46.600Z,87.65
2019-05-28T01:20:46.547Z,88.37
2019-05-28T01:23:46.543Z,88.71
2019-05-28T01:26:46.479Z,89.33
2019-05-28T01:29:46.487Z,89.58
2019-05-28T01:32:46.446Z,90.81
2019-05-28T01:35:46.384Z,89.78
2019-05-28T01:38:46.396Z,90.54
2019-05-28T01:41:46.351Z,91.97
2019-05-28T01:44:46.290Z,91.77
2019-05-28T01:47:46.281Z,91.77
2019-05-28T01:50:46.247Z,92.83
2019-05-28T01:53:46.188Z,93.00
2019-05-28T01:56:46.180Z,92.18
2019-05-28T01:59:46.131Z,91.20
2019-05-28T02:02:46.164Z,92.22
2019-05-28T02:05:46.059Z,92.83
2019-05-28T02:08:46.051Z,93.08
2019-05-28T02:11:46.017Z,94.46
2019-05-28T02:14:45.996Z,94.36
2019-05-28T02:17:45.938Z,94.26
2019-05-28T02:20:45.933Z,94.67
2019-05-28T02:23:45.890Z,95.12
2019-05-28T02:26:45.881Z,95.07
2019-05-28T02:29:45.813Z,95.23
2019-05-28T02:32:45.827Z,95.47
2019-05-28T02:35:45.739Z,95.52
2019-05-28T02:38:45.737Z,97.99
2019-05-28T02:41:45.672Z,95.94
2019-05-28T02:44:45.671Z,97.17
2019-05-28T02:47:45.818Z,97.02
2019-05-28T02:50:45.576Z,97.12
2019-05-28T02:53:45.598Z,97.73
2019-05-28T02:56:45.510Z,98.10
2019-05-28T02:59:45.497Z,97.89
2019-05-28T03:02:45.448Z,98.82
2019-05-28T03:05:45.442Z,97.85
2019-05-28T03:08:45.383Z,97.54
2019-05-28T03:11:45.363Z,96.37
2019-05-28T03:14:45.316Z,95.65
2019-05-28T03:17:45.309Z,96.53
2019-05-28T03:20:45.254Z,95.70
2019-05-28T03:23:45.263Z,95.61
2019-05-28T03:26:45.190Z,95.70
2019-05-28T03:29:45.184Z,95.09
2019-05-28T03:32:45.140Z,93.92
2019-05-28T03:35:45.128Z,93.16
2019-05-28T03:38:45.058Z,90.70
2019-05-28T03:41:45.078Z,89.74
2019-05-28T03:44:44.996Z,89.33
2019-05-28T03:47:44.991Z,88.57
2019-05-28T03:50:44.929Z,89.09
2019-05-28T03:53:44.934Z,88.47
2019-05-28T03:56:44.909Z,88.78
2019-05-28T03:59:44.832Z,88.57
2019-05-28T04:02:44.830Z,88.84
2019-05-28T04:05:44.774Z,87.82
2019-05-28T04:08:44.767Z,87.37
2019-05-28T04:11:45.426Z,86.24
2019-05-28T04:14:44.684Z,86.20
2019-05-28T04:17:44.705Z,85.49
2019-05-28T04:20:44.610Z,85.49
2019-05-28T04:23:44.606Z,84.26
2019-05-28T04:26:44.563Z,83.75
2019-05-28T04:29:44.538Z,85.35
2019-05-28T04:32:44.503Z,85.04
2019-05-28T04:35:44.454Z,85.35
2019-05-28T04:38:44.416Z,83.92
2019-05-28T04:41:44.412Z,85.18
2019-05-28T04:44:44.356Z,85.59
2019-05-28T04:47:44.343Z,85.04
2019-05-28T04:50:44.297Z,84.22
2019-05-28T04:53:44.251Z,83.16
2019-05-28T04:56:44.268Z,83.23
2019-05-28T04:59:44.194Z,82.88
2019-05-28T05:02:58.733Z,81.96
2019-05-28T05:05:45.123Z,80.19
2019-05-28T05:08:44.114Z,80.19
2019-05-28T05:11:44.063Z,79.14
2019-05-28T05:14:44.062Z,79.38
2019-05-28T05:17:44.020Z,77.75
2019-05-28T05:20:44.097Z,77.81
2019-05-28T05:23:43.960Z,78.42
2019-05-28T05:26:43.893Z,77.47
2019-05-28T05:29:43.891Z,76.65
2019-05-28T05:32:43.833Z,76.65
2019-05-28T05:35:43.811Z,76.31
2019-05-28T05:38:43.796Z,74.99
2019-05-28T05:41:43.734Z,75.57
2019-05-28T05:44:43.731Z,75.26
2019-05-28T05:47:43.666Z,74.52
2019-05-28T05:50:45.358Z,71.94
2019-05-28T05:53:43.603Z,71.57
2019-05-28T05:56:43.599Z,70.62
2019-05-28T05:59:43.591Z,69.54
2019-05-28T06:02:43.513Z,69.60
2019-05-28T06:05:43.493Z,70.35
2019-05-28T06:08:43.443Z,70.35
2019-05-28T06:11:43.443Z,65.22
2019-05-28T06:14:43.392Z,63.48
2019-05-28T06:17:43.376Z,61.01
2019-05-28T06:20:43.339Z,61.57
2019-05-28T06:23:43.340Z,65.10
2019-05-28T06:26:43.246Z,66.64
2019-05-28T06:29:43.241Z,67.46
2019-05-28T06:32:43.182Z,68.94
2019-05-28T06:35:43.185Z,70.83
2019-05-28T06:38:43.119Z,68.77
2019-05-28T06:41:43.105Z,71.91
2019-05-28T06:44:43.099Z,72.24
2019-05-28T06:47:45.305Z,74.51
2019-05-28T06:50:43.035Z,74.78
2019-05-28T06:53:42.954Z,75.32
2019-05-28T06:56:42.956Z,79.69
2019-05-28T06:59:42.930Z,79.52
2019-05-28T07:02:42.859Z,80.44
2019-05-28T07:05:42.852Z,81.35
2019-05-28T07:08:42.827Z,79.09
2019-05-28T07:11:42.776Z,82.00
2019-05-28T07:14:42.747Z,83.32
2019-05-28T07:17:42.709Z,81.39
2019-05-28T07:20:42.674Z,81.45
2019-05-28T07:23:42.651Z,80.10
2019-05-28T07:26:42.610Z,79.59
2019-05-28T07:29:42.581Z,79.35
2019-05-28T07:32:42.557Z,79.11
2019-05-28T07:35:45.681Z,77.89
2019-05-28T07:38:42.483Z,79.51
2019-05-28T07:41:42.446Z,79.72
2019-05-28T07:44:42.406Z,79.85
2019-05-28T07:47:42.412Z,78.88
2019-05-28T07:50:42.342Z,81.56
2019-05-28T07:53:42.329Z,80.44
2019-05-28T07:56:42.276Z,80.13
2019-05-28T07:59:42.283Z,81.76
2019-05-28T08:02:42.236Z,79.45
2019-05-28T08:05:42.178Z,79.51
2019-05-28T08:08:42.159Z,79.03
2019-05-28T08:11:42.118Z,78.63
2019-05-28T08:14:42.093Z,76.77
2019-05-28T08:17:42.085Z,79.63
2019-05-28T08:20:42.017Z,78.48
2019-05-28T08:23:42.008Z,76.50
2019-05-28T08:26:41.951Z,76.82
2019-05-28T08:29:45.501Z,71.50
2019-05-28T08:32:41.889Z,65.90
2019-05-28T08:35:41.866Z,59.22
2019-05-28T08:38:41.862Z,64.54
2019-05-28T08:41:41.790Z,69.72
2019-05-28T08:44:41.792Z,65.15
2019-05-28T08:47:41.728Z,67.43
2019-05-28T08:50:41.702Z,68.85
2019-05-28T08:53:41.685Z,61.44
2019-05-28T08:56:41.639Z,53.97
2019-05-28T08:59:41.599Z,52.32
2019-05-28T09:02:41.591Z,52.00
2019-05-28T09:05:41.534Z,52.62
2019-05-28T09:08:41.521Z,49.02
2019-05-28T09:11:41.480Z,52.62
2019-05-28T09:14:55.836Z,54.85
2019-05-28T09:17:42.418Z,53.77
2019-05-28T09:20:41.517Z,55.00
2019-05-28T09:23:41.355Z,50.42
2019-05-28T09:26:41.330Z,54.07
2019-05-28T09:29:41.284Z,56.58
2019-05-28T09:32:41.311Z,53.92
2019-05-28T09:35:46.748Z,54.58
2019-05-28T09:38:42.202Z,56.38
2019-05-28T09:41:41.159Z,54.25
2019-05-28T09:44:41.150Z,52.72
2019-05-28T09:47:41.109Z,52.12
2019-05-28T09:50:41.135Z,55.47
2019-05-28T09:53:41.041Z,52.94
2019-05-28T09:56:41.029Z,50.92
2019-05-28T09:59:42.156Z,41.63
2019-05-28T10:02:40.932Z,37.15
2019-05-28T10:06:01.725Z,42.79
2019-05-28T10:10:25.750Z,45.04
2019-05-28T10:13:39.619Z,43.37
2019-05-28T10:18:10.560Z,40.86
2019-05-28T10:21:18.402Z,41.46
2019-05-28T10:24:11.514Z,41.42
2019-05-28T10:27:10.455Z,39.04
2019-05-28T10:30:10.456Z,39.85
2019-05-28T10:33:10.400Z,36.84
2019-05-28T10:36:10.382Z,39.29
2019-05-28T10:39:10.335Z,41.97
2019-05-28T10:42:10.333Z,43.89
2019-05-28T10:45:10.361Z,45.33
2019-05-28T10:48:10.238Z,48.44
2019-05-28T10:51:10.253Z,51.72
2019-05-28T10:54:10.171Z,51.32
2019-05-28T10:57:10.159Z,51.34
2019-05-28T11:00:10.157Z,45.94
2019-05-28T11:03:10.082Z,47.53
2019-05-28T11:06:10.086Z,46.13
2019-05-28T11:09:10.008Z,45.22
2019-05-28T11:12:10.011Z,46.34
2019-05-28T11:15:09.971Z,49.22
2019-05-28T11:18:09.937Z,47.19
2019-05-28T11:21:10.254Z,48.86
2019-05-28T11:24:10.721Z,52.51
2019-05-28T11:27:09.848Z,54.45
2019-05-28T11:30:09.828Z,54.98
2019-05-28T11:33:09.758Z,57.50
2019-05-28T11:36:09.748Z,59.88
2019-05-28T11:39:09.687Z,61.39
2019-05-28T11:42:09.714Z,59.75
2019-05-28T11:45:09.914Z,57.90
2019-05-28T11:48:09.919Z,57.98
2019-05-28T11:51:09.569Z,58.35
2019-05-28T11:54:09.558Z,55.99
2019-05-28T11:57:09.500Z,52.69
2019-05-28T12:00:09.494Z,47.22
2019-05-28T12:03:09.427Z,51.07
2019-05-28T12:06:09.421Z,46.33
2019-05-28T12:09:09.381Z,46.61
2019-05-28T12:12:09.361Z,47.81
2019-05-28T12:15:09.328Z,47.68
2019-05-28T12:18:09.273Z,39.59
2019-05-28T12:21:09.246Z,43.27
2019-05-28T12:24:09.201Z,41.12
2019-05-28T12:27:09.206Z,41.38
2019-05-28T12:30:09.211Z,48.86
2019-05-28T12:33:09.105Z,48.46
2019-05-28T12:36:09.169Z,49.96
2019-05-28T12:39:09.051Z,51.37
2019-05-28T12:42:09.040Z,50.91
2019-05-28T12:45:10.225Z,51.37
2019-05-28T12:48:12.510Z,51.84
2019-05-28T12:51:08.916Z,53.80
2019-05-28T12:54:08.930Z,57.20
2019-05-28T12:57:08.882Z,56.44
2019-05-28T13:00:08.840Z,56.34
2019-05-28T13:03:08.869Z,56.95
2019-05-28T13:06:08.751Z,55.63
2019-05-28T13:09:08.749Z,55.83
2019-05-28T13:12:08.720Z,56.04
2019-05-28T13:15:08.657Z,55.31
2019-05-28T13:18:08.660Z,57.48
2019-05-28T13:21:08.590Z,59.12
2019-05-28T13:24:08.597Z,59.91
2019-05-28T13:27:18.005Z,64.16
2019-05-28T13:30:09.633Z,67.66
2019-05-28T13:33:08.534Z,71.40
2019-05-28T13:36:08.427Z,72.68
2019-05-28T13:39:08.417Z,76.67
2019-05-28T13:42:08.365Z,78.73
2019-05-28T13:45:08.386Z,80.39
2019-05-28T13:48:08.297Z,81.04
2019-05-28T13:51:08.780Z,85.24
2019-05-28T13:54:08.231Z,88.58
2019-05-28T13:57:08.207Z,89.94
2019-05-28T14:00:08.176Z,92.63
2019-05-28T14:03:08.216Z,94.90
2019-05-28T14:06:08.165Z,94.95
2019-05-28T14:09:08.067Z,96.47
2019-05-28T14:12:08.058Z,97.03
2019-05-28T14:15:08.097Z,98.45
2019-05-28T14:18:08.109Z,99.11
2019-05-28T14:21:07.955Z,99.99
2019-05-28T14:24:07.911Z,99.99
2019-05-28T14:27:07.898Z,99.99
2019-05-28T14:30:07.845Z,99.99
2019-05-28T14:33:07.831Z,99.99
2019-05-28T14:36:07.813Z,99.99
2019-05-28T14:39:07.765Z,99.99
2019-05-28T14:42:07.705Z,99.99
2019-05-28T14:45:07.712Z,99.99
2019-05-28T14:48:07.643Z,99.99
2019-05-28T14:51:07.615Z,99.99
2019-05-28T14:54:07.593Z,99.99
2019-05-28T14:57:07.547Z,99.99
2019-05-28T15:00:07.519Z,99.99
2019-05-28T15:03:08.302Z,99.99
2019-05-28T15:06:07.458Z,99.99
2019-05-28T15:09:20.167Z,99.99
2019-05-28T15:12:08.376Z,99.99
2019-05-28T15:15:07.385Z,98.94
2019-05-28T15:18:07.309Z,98.24
2019-05-28T15:21:07.301Z,97.19
2019-05-28T15:24:07.243Z,96.22
2019-05-28T15:27:07.261Z,95.40
2019-05-28T15:30:07.182Z,96.43
2019-05-28T15:33:07.179Z,93.40
2019-05-28T15:36:07.139Z,93.96
2019-05-28T15:39:07.080Z,93.44
2019-05-28T15:42:07.353Z,90.72
2019-05-28T15:45:07.049Z,95.17
2019-05-28T15:48:06.994Z,93.73
2019-05-28T15:51:06.949Z,93.47
2019-05-28T15:54:06.930Z,94.84
2019-05-28T15:57:06.904Z,97.94
2019-05-28T16:00:06.848Z,95.20
2019-05-28T16:03:06.900Z,96.67
2019-05-28T16:06:06.794Z,94.62
2019-05-28T16:09:06.778Z,97.42
2019-05-28T16:12:06.726Z,97.16
2019-05-28T16:15:06.696Z,97.93
2019-05-28T16:18:13.708Z,97.63
2019-05-28T16:21:13.669Z,96.96
2019-05-28T16:24:13.623Z,98.44
2019-05-28T16:27:13.637Z,96.80
2019-05-28T16:30:13.597Z,99.04
2019-05-28T16:33:14.108Z,99.99
2019-05-28T16:36:13.501Z,99.71
2019-05-28T16:39:06.452Z,97.72
2019-05-28T16:42:06.387Z,98.94
2019-05-28T16:45:06.394Z,99.15
2019-05-28T16:48:06.331Z,98.33
2019-05-28T16:51:06.310Z,98.02
2019-05-28T16:54:18.784Z,99.10
2019-05-28T16:57:07.223Z,99.99
2019-05-28T17:00:06.203Z,99.99
2019-05-28T17:03:06.205Z,99.04
2019-05-28T17:06:06.175Z,99.55
2019-05-28T17:09:06.094Z,99.86
2019-05-28T17:12:06.076Z,99.99
2019-05-28T17:15:06.025Z,99.99
2019-05-28T17:18:06.012Z,99.25
2019-05-28T17:21:05.966Z,98.54
2019-05-28T17:24:05.983Z,98.99
2019-05-28T17:27:05.946Z,99.29
2019-05-28T17:30:17.789Z,99.70
2019-05-28T17:33:06.829Z,99.60
2019-05-28T17:36:05.852Z,99.99
2019-05-28T17:39:05.766Z,99.99
2019-05-28T17:42:05.740Z,99.99
2019-05-28T17:45:05.719Z,99.99
2019-05-28T17:48:05.679Z,99.99
2019-05-28T17:51:05.657Z,99.99
2019-05-28T17:54:05.604Z,99.99
2019-05-28T17:57:05.585Z,99.99
2019-05-28T18:00:05.572Z,99.99
2019-05-28T18:03:05.507Z,99.99
2019-05-28T18:06:05.486Z,99.99
2019-05-28T18:09:05.433Z,99.99
2019-05-28T18:12:05.450Z,99.99
2019-05-28T18:15:05.363Z,99.99
2019-05-28T18:18:05.347Z,99.99
2019-05-28T18:21:05.308Z,99.99
2019-05-28T18:24:05.297Z,99.99
2019-05-28T18:27:05.251Z,99.99
2019-05-28T18:30:05.205Z,99.99
2019-05-28T18:33:05.192Z,99.99
2019-05-28T18:36:05.131Z,99.99
2019-05-28T18:39:05.121Z,99.99
2019-05-28T18:42:05.065Z,99.90
2019-05-28T18:45:05.051Z,99.99
2019-05-28T18:48:05.033Z,99.99
2019-05-28T18:51:04.973Z,99.99
2019-05-28T18:54:04.951Z,98.98
2019-05-28T18:57:04.904Z,98.41
2019-05-28T19:00:04.910Z,99.23
2019-05-28T19:03:05.555Z,98.11
2019-05-28T19:06:04.813Z,99.23
2019-05-28T19:09:04.777Z,99.23
2019-05-28T19:12:04.748Z,98.41
2019-05-28T19:15:04.712Z,98.46
2019-05-28T19:18:04.701Z,99.07
2019-05-28T19:21:04.635Z,93.66
2019-05-28T19:24:04.632Z,94.17
2019-05-28T19:27:04.594Z,94.01
2019-05-28T19:30:04.563Z,93.19
2019-05-28T19:33:04.575Z,91.35
2019-05-28T19:36:04.468Z,92.62
2019-05-28T19:39:04.464Z,90.94
2019-05-28T19:42:04.432Z,89.65
2019-05-28T19:45:04.366Z,90.99
2019-05-28T19:48:04.358Z,92.56
2019-05-28T19:51:04.299Z,92.77
2019-05-28T19:54:04.281Z,88.84
2019-05-28T19:57:04.236Z,87.96
2019-05-28T20:00:04.244Z,89.50
2019-05-28T20:03:04.212Z,88.68
2019-05-28T20:06:04.135Z,85.30
2019-05-28T20:09:04.133Z,87.96
2019-05-28T20:12:12.283Z,81.99
2019-05-28T20:15:05.078Z,86.02
2019-05-28T20:18:04.039Z,88.62
2019-05-28T20:21:03.985Z,84.48
2019-05-28T20:24:03.930Z,84.38
2019-05-28T20:27:03.927Z,83.66
2019-05-28T20:30:05.059Z,84.11
2019-05-28T20:33:03.829Z,83.36
2019-05-28T20:36:03.815Z,83.29
2019-05-28T20:39:03.763Z,83.39
2019-05-28T20:42:04.104Z,83.84
2019-05-28T20:45:04.313Z,83.50
2019-05-28T20:48:04.627Z,85.38
2019-05-28T20:51:08.819Z,85.99
2019-05-28T20:54:04.590Z,87.98
2019-05-28T20:57:03.626Z,85.58
2019-05-28T21:00:03.548Z,83.74
2019-05-28T21:03:03.494Z,82.00
2019-05-28T21:06:03.481Z,81.35
2019-05-28T21:09:03.460Z,82.78
2019-05-28T21:12:03.429Z,81.04
2019-05-28T21:15:03.401Z,83.64
2019-05-28T21:18:03.365Z,82.51
2019-05-28T21:21:03.290Z,82.92
2019-05-28T21:24:03.283Z,87.06
2019-05-28T21:27:03.241Z,82.04
2019-05-28T21:30:03.191Z,85.52
2019-05-28T21:33:03.172Z,88.64
2019-05-28T21:36:03.147Z,86.48
2019-05-28T21:39:03.116Z,88.33
2019-05-28T21:42:03.371Z,88.64
2019-05-28T21:45:03.039Z,87.65
2019-05-28T21:48:03.142Z,88.47
2019-05-28T21:51:03.006Z,85.87
2019-05-28T21:54:03.328Z,85.56
2019-05-28T21:57:03.628Z,83.86
2019-05-28T22:00:04.103Z,86.52
2019-05-28T22:03:02.870Z,86.57
2019-05-28T22:06:03.507Z,85.85
2019-05-28T22:09:03.835Z,85.95
2019-05-28T22:12:03.849Z,86.19
2019-05-28T22:15:02.723Z,85.68
2019-05-28T22:18:02.666Z,85.93
2019-05-28T22:21:02.669Z,87.98
2019-05-28T22:24:02.750Z,88.53
2019-05-28T22:27:02.572Z,88.62
2019-05-28T22:30:04.755Z,89.03
2019-05-28T22:33:02.542Z,90.00
2019-05-28T22:36:03.463Z,89.42
2019-05-28T22:39:03.644Z,90.75
2019-05-28T22:42:09.455Z,92.50
2019-05-28T22:45:03.197Z,93.27
2019-05-28T22:48:06.298Z,94.85
2019-05-28T22:51:03.654Z,94.24
2019-05-28T22:54:02.291Z,94.85
2019-05-28T22:57:03.253Z,96.18
2019-05-28T23:00:03.079Z,94.90
2019-05-28T23:03:02.950Z,92.33
2019-05-28T23:06:03.152Z,91.30
2019-05-28T23:09:02.123Z,90.94
2019-05-28T23:12:02.103Z,92.38
2019-05-28T23:15:02.075Z,92.02
2019-05-28T23:18:02.420Z,92.21
2019-05-28T23:21:02.623Z,94.99
2019-05-28T23:24:03.097Z,94.23
2019-05-28T23:27:01.950Z,96.53
2019-05-28T23:30:07.764Z,95.65
2019-05-28T23:33:04.224Z,97.09
2019-05-28T23:36:02.490Z,98.69
2019-05-28T23:39:02.811Z,98.90
2019-05-28T23:42:01.811Z,98.07
2019-05-28T23:45:01.743Z,98.07
2019-05-28T23:48:01.783Z,96.94
2019-05-28T23:51:01.673Z,97.34
2019-05-28T23:54:01.685Z,95.80
2019-05-28T23:57:01.615Z,97.14
